Chapman, Illinois
Current Conditions -  °F | °C
As of 11:15 AM on Sunday 21 Dec 2014 (Local Time) from K3LF Reporting Station
Overcast Overcast  
Wind Chill: 27°   Ceiling: 2100
Heat Index: 36°   Visibility: 10mi
Dew Point: 29°   Wind: 13mph
Humidity: 78%   Direction: 150°SSE
Pressure: 30.18"   Gusts: NA
Location:  39.1009°N, 89.3067°W
Report Text: K3LF 211715Z AUTO 15011KT 10SM OVC021 02/M01 A3018 RMK AO2 T00201015
Loading
Personal Weather Stations






























Interactive Weather Map New forecast layout! Learn more

10-Day Weather Forecast

Advertisements
Track Severe Weather on mobile